EmailTwitter


Surface observations / Quebec / CYUL (71627)

Regions: Quebec | Canada | USA | Europe | France | UK | Elsewhere
Station
Display
Info & Location for CYUL (71627) | Help decoding METAR

Weather Conditions observed on 2019/12/13 at 22:00 UTC at MONTREAL INTL A, QB (CYUL)

Sky conditions: partly cloudy.

Temperature: 2.0 Celsius.

Dewpoint: -2.0 Celsius.

Relative Humidity: 75%

Windchill Factor: -2.

Winds: Southeast at 13 km/h or 7 knots.

Mean Sea level Pressure: 102.23 kilopascals.

Altimeter Setting (QNH): 102.20 kilopascals or 30.18 inches of mercury.

Horizontal visibility: 15.00 statute miles or 24.00 kilometers.

Height of the Ceiling: 7620 metres ( 25000 feet ).

Coded METAR:

CYUL 132200Z 14007KT 15SM FEW050 BKN250 02/M02 A3018 RMK SC1CI7 SC TR SLP223=